Time;durP1;ratioP1;P1;durP2;ratioP2;P2;SDS_P1;SDS_P2;PMS_P1;PMS_P2;Temp;Humidity;BMP_temperature;BMP_pressure;BME280_temperature;BME280_humidity;BME280_pressure;Samples;Min_cycle;Max_cycle;Signal;HPM_P1;HPM_P2
2023/09/15 00:00:25;;;;;;;10.47;6.80;;;11.40;99.90;;;;;;5036845;28;20554;-82
2023/09/15 00:02:52;;;;;;;8.87;6.03;;;11.20;99.90;;;;;;5036080;28;20223;-82
2023/09/15 00:05:21;;;;;;;11.10;5.90;;;11.40;99.90;;;;;;5036518;28;20561;-82
2023/09/15 00:07:48;;;;;;;8.73;5.63;;;11.30;99.90;;;;;;5032519;28;20235;-81
2023/09/15 00:10:16;;;;;;;10.90;6.47;;;11.20;99.90;;;;;;5036060;28;20204;-81
2023/09/15 00:12:45;;;;;;;8.90;6.33;;;11.30;99.90;;;;;;5035721;28;20224;-81
2023/09/15 00:15:13;;;;;;;10.07;6.33;;;11.20;99.90;;;;;;5035866;28;20734;-81
2023/09/15 00:17:42;;;;;;;8.97;5.70;;;11.40;99.90;;;;;;5035809;28;20239;-81
2023/09/15 00:20:13;;;;;;;6.90;4.63;;;11.30;99.90;;;;;;5036606;28;20214;-81
2023/09/15 00:22:42;;;;;;;7.13;4.63;;;11.30;99.90;;;;;;5035677;28;20227;-81
2023/09/15 00:25:09;;;;;;;6.47;4.63;;;11.20;99.90;;;;;;5034584;28;20250;-81
2023/09/15 00:27:37;;;;;;;8.77;4.70;;;11.10;99.90;;;;;;5030243;28;20210;-81
2023/09/15 00:30:04;;;;;;;6.73;4.07;;;11.10;99.90;;;;;;5035983;28;20203;-80
2023/09/15 00:32:31;;;;;;;7.13;4.47;;;11.00;99.90;;;;;;5035953;28;20224;-80
2023/09/15 00:34:58;;;;;;;7.27;5.20;;;11.00;99.90;;;;;;5035310;28;20277;-80
2023/09/15 00:37:25;;;;;;;7.43;4.53;;;11.00;99.90;;;;;;5034775;28;20200;-81
2023/09/15 00:39:53;;;;;;;7.50;4.93;;;10.90;99.90;;;;;;5035864;28;20203;-80
2023/09/15 00:42:21;;;;;;;6.07;4.50;;;10.80;99.90;;;;;;5027018;28;20206;-79
2023/09/15 00:44:48;;;;;;;5.30;4.20;;;10.90;99.90;;;;;;5035495;28;20273;-80
2023/09/15 00:47:15;;;;;;;5.77;3.87;;;10.90;99.90;;;;;;5035114;28;20209;-81
2023/09/15 00:49:42;;;;;;;10.90;5.37;;;10.70;99.90;;;;;;5035354;28;20285;-81
2023/09/15 00:52:09;;;;;;;7.53;5.93;;;10.70;99.90;;;;;;5034850;28;20261;-81
2023/09/15 00:54:36;;;;;;;7.73;6.07;;;10.70;99.90;;;;;;5035272;28;20230;-81
2023/09/15 00:57:05;;;;;;;8.97;4.70;;;10.70;99.90;;;;;;5034879;28;20678;-81
2023/09/15 00:59:32;;;;;;;9.53;6.10;;;10.80;99.90;;;;;;5034819;28;20590;-81
2023/09/15 01:02:01;;;;;;;8.47;5.50;;;10.70;99.90;;;;;;5034873;28;20210;-79
2023/09/15 01:04:31;;;;;;;8.20;4.90;;;10.70;99.90;;;;;;5034606;28;20230;-80
2023/09/15 01:07:00;;;;;;;9.17;5.40;;;10.60;99.90;;;;;;5023480;28;20745;-81
2023/09/15 01:09:29;;;;;;;9.57;4.87;;;10.60;99.90;;;;;;5035523;28;20570;-81
2023/09/15 01:11:56;;;;;;;6.43;4.80;;;10.60;99.90;;;;;;5035250;28;20230;-81
2023/09/15 01:14:24;;;;;;;8.30;5.50;;;10.60;99.90;;;;;;5034748;28;20664;-80
2023/09/15 01:16:59;;;;;;;10.77;5.80;;;10.60;99.90;;;;;;5034838;28;20196;-80
2023/09/15 01:19:54;;;;;;;7.77;4.90;;;10.70;99.90;;;;;;5035087;28;20200;-82
2023/09/15 01:22:40;;;;;;;5.87;4.93;;;10.60;99.90;;;;;;5034839;28;20597;-82
2023/09/15 01:25:32;;;;;;;8.07;4.53;;;10.30;99.90;;;;;;5033696;28;20227;-81
2023/09/15 01:28:19;;;;;;;8.33;4.20;;;10.30;99.90;;;;;;5005909;28;20285;-81
2023/09/15 01:30:50;;;;;;;6.00;3.73;;;10.20;99.90;;;;;;5024098;28;20235;-82
2023/09/15 01:33:19;;;;;;;4.20;3.80;;;10.20;99.90;;;;;;5034729;28;20235;-81
2023/09/15 01:35:46;;;;;;;7.10;4.00;;;9.90;99.90;;;;;;5034668;28;20655;-80
2023/09/15 01:38:13;;;;;;;8.93;4.70;;;9.80;99.90;;;;;;5034622;28;20570;-81
2023/09/15 01:40:39;;;;;;;9.40;5.53;;;10.00;99.90;;;;;;5032185;28;20196;-81
2023/09/15 01:43:06;;;;;;;8.73;5.40;;;10.10;99.90;;;;;;5033067;28;20227;-79
2023/09/15 01:45:33;;;;;;;7.20;5.50;;;10.20;99.90;;;;;;5034519;28;20216;-81
2023/09/15 01:48:02;;;;;;;6.23;5.10;;;10.20;99.90;;;;;;5034296;28;20627;-80
2023/09/15 01:50:30;;;;;;;6.00;4.87;;;10.20;99.90;;;;;;5034088;28;20204;-79
2023/09/15 01:52:57;;;;;;;5.77;4.20;;;10.20;99.90;;;;;;5034642;28;20725;-80
2023/09/15 01:55:26;;;;;;;8.20;4.53;;;10.20;99.90;;;;;;5030206;28;20199;-78
2023/09/15 01:57:53;;;;;;;4.97;4.40;;;10.30;99.90;;;;;;5034256;28;20280;-81
2023/09/15 02:00:20;;;;;;;5.50;4.00;;;10.10;99.90;;;;;;5034677;28;21203;-81
2023/09/15 02:02:47;;;;;;;4.67;3.47;;;9.80;99.90;;;;;;5034718;28;20228;-82
2023/09/15 02:05:22;;;;;;;6.00;4.20;;;9.70;99.90;;;;;;5034352;28;20262;-82
2023/09/15 02:07:49;;;;;;;5.97;4.27;;;9.70;99.90;;;;;;5034065;28;20590;-81
2023/09/15 02:10:16;;;;;;;7.90;4.27;;;9.70;99.90;;;;;;5034189;28;20207;-80
2023/09/15 02:12:42;;;;;;;4.30;3.10;;;9.80;99.90;;;;;;5033815;28;20776;-82
2023/09/15 02:15:10;;;;;;;5.23;3.77;;;9.40;99.90;;;;;;5034283;28;20729;-81
2023/09/15 02:17:38;;;;;;;3.90;3.30;;;9.30;99.90;;;;;;5033772;28;20793;-81
2023/09/15 02:20:12;;;;;;;6.50;3.33;;;9.50;99.90;;;;;;5034440;28;20662;-82
2023/09/15 02:22:43;;;;;;;6.73;3.37;;;9.70;99.90;;;;;;5034484;28;20277;-81
2023/09/15 02:25:10;;;;;;;4.23;3.17;;;9.50;99.90;;;;;;5034095;28;20214;-79
2023/09/15 02:27:37;;;;;;;4.93;3.30;;;9.50;99.90;;;;;;5034414;28;20215;-81
2023/09/15 02:30:06;;;;;;;6.97;4.07;;;9.70;99.90;;;;;;5034045;28;20211;-80
2023/09/15 02:32:33;;;;;;;5.03;3.90;;;9.80;99.90;;;;;;5034448;28;20219;-81
2023/09/15 02:35:00;;;;;;;6.80;3.63;;;10.00;99.90;;;;;;5033777;28;20243;-81
2023/09/15 02:37:26;;;;;;;4.03;3.63;;;9.90;99.90;;;;;;5037649;28;20204;-79
2023/09/15 02:39:55;;;;;;;3.50;3.20;;;9.90;99.90;;;;;;5038156;28;20211;-81
2023/09/15 02:42:22;;;;;;;7.23;3.30;;;9.80;99.90;;;;;;5037998;28;20199;-82
2023/09/15 02:44:49;;;;;;;5.47;2.93;;;9.50;99.90;;;;;;5038237;28;20235;-81
2023/09/15 02:47:15;;;;;;;4.87;2.87;;;9.50;99.90;;;;;;5038014;28;20219;-82
2023/09/15 02:49:42;;;;;;;3.63;2.97;;;9.40;99.90;;;;;;5038426;28;20200;-82
2023/09/15 02:52:09;;;;;;;2.97;2.60;;;9.50;99.90;;;;;;5037920;28;20199;-79
2023/09/15 02:54:36;;;;;;;4.87;2.53;;;9.40;99.90;;;;;;5038395;28;20200;-81
2023/09/15 02:57:04;;;;;;;3.20;2.90;;;9.30;99.90;;;;;;5035316;28;20208;-80
2023/09/15 02:59:31;;;;;;;7.03;3.63;;;9.30;99.90;;;;;;5037670;28;20213;-79
2023/09/15 03:01:59;;;;;;;5.03;3.57;;;9.40;99.90;;;;;;5037809;28;20412;-81
2023/09/15 03:04:26;;;;;;;5.77;3.70;;;9.40;99.90;;;;;;5037026;28;21753;-81
2023/09/15 03:06:53;;;;;;;5.20;3.40;;;9.50;99.90;;;;;;5037006;28;20207;-81
2023/09/15 03:09:20;;;;;;;3.77;3.40;;;9.50;99.90;;;;;;5036885;28;20214;-81
2023/09/15 03:11:47;;;;;;;6.53;3.87;;;9.50;99.90;;;;;;5037230;28;20212;-81
2023/09/15 03:14:16;;;;;;;6.63;4.10;;;9.40;99.90;;;;;;5037459;28;20590;-78
2023/09/15 03:16:43;;;;;;;4.93;3.60;;;9.40;99.90;;;;;;5037703;28;20761;-79
2023/09/15 03:19:10;;;;;;;6.17;4.10;;;9.50;99.90;;;;;;5037333;28;20206;-78
2023/09/15 03:21:38;;;;;;;4.53;3.50;;;9.50;99.90;;;;;;5037432;28;20222;-81
2023/09/15 03:24:06;;;;;;;7.27;4.10;;;9.50;99.90;;;;;;5037208;28;20235;-81
2023/09/15 03:26:33;;;;;;;4.53;3.70;;;9.50;99.90;;;;;;5037072;28;20192;-81
2023/09/15 03:29:00;;;;;;;5.30;3.23;;;9.50;99.90;;;;;;5037163;28;20206;-81
2023/09/15 03:31:28;;;;;;;6.30;3.50;;;9.60;99.90;;;;;;5037361;28;20284;-80
2023/09/15 03:33:55;;;;;;;4.43;3.27;;;9.60;99.90;;;;;;5037187;28;20226;-81
2023/09/15 03:36:22;;;;;;;4.60;2.97;;;9.50;99.90;;;;;;5037193;28;20199;-80
2023/09/15 03:38:49;;;;;;;4.13;3.00;;;9.40;99.90;;;;;;5036883;28;20215;-79
2023/09/15 03:41:16;;;;;;;6.33;3.10;;;9.30;99.90;;;;;;5037028;28;20204;-81
2023/09/15 03:43:42;;;;;;;6.43;3.70;;;9.20;99.90;;;;;;5036426;28;20225;-80
2023/09/15 03:46:09;;;;;;;5.30;3.60;;;9.20;99.90;;;;;;5037072;28;20724;-80
2023/09/15 03:48:37;;;;;;;5.43;3.70;;;9.30;99.90;;;;;;5015777;28;20566;-82
2023/09/15 03:51:04;;;;;;;4.70;3.20;;;9.10;99.90;;;;;;5034930;28;20210;-81
2023/09/15 03:53:31;;;;;;;6.20;3.77;;;9.20;99.90;;;;;;5035515;28;20729;-82
2023/09/15 03:55:58;;;;;;;9.63;3.77;;;9.20;99.90;;;;;;5036171;28;20192;-81
2023/09/15 03:58:24;;;;;;;5.27;3.10;;;9.20;99.90;;;;;;5036067;28;20567;-81
2023/09/15 04:00:51;;;;;;;4.43;3.13;;;9.20;99.90;;;;;;5035766;28;20226;-80
2023/09/15 04:03:22;;;;;;;3.43;2.87;;;9.20;99.90;;;;;;5036243;28;20227;-81
2023/09/15 04:05:50;;;;;;;5.63;3.60;;;9.20;99.90;;;;;;5036079;28;20220;-79
2023/09/15 04:08:17;;;;;;;8.33;4.80;;;9.20;99.90;;;;;;5027780;28;20201;-80
2023/09/15 04:10:44;;;;;;;6.97;5.17;;;9.20;99.90;;;;;;5021073;28;20210;-82
2023/09/15 04:13:10;;;;;;;3.47;3.17;;;9.30;99.90;;;;;;5036914;28;20224;-80
2023/09/15 04:15:39;;;;;;;4.27;3.00;;;9.20;99.90;;;;;;5037126;28;20575;-81
2023/09/15 04:18:08;;;;;;;1.80;1.70;;;9.10;99.90;;;;;;5036480;28;20207;-81
2023/09/15 04:20:34;;;;;;;22.50;2.77;;;8.90;99.90;;;;;;5036905;28;20306;-79
2023/09/15 04:23:03;;;;;;;4.13;2.40;;;8.80;99.90;;;;;;5036837;28;20224;-82
2023/09/15 04:25:29;;;;;;;3.03;2.60;;;8.80;99.90;;;;;;5036795;28;20632;-81
2023/09/15 04:27:56;;;;;;;5.73;3.03;;;8.90;99.90;;;;;;5037063;28;20583;-82
2023/09/15 04:30:23;;;;;;;7.17;3.60;;;8.90;99.90;;;;;;5037433;28;20734;-80
2023/09/15 04:32:50;;;;;;;7.30;3.60;;;8.90;99.90;;;;;;5037343;28;20223;-82
2023/09/15 04:35:17;;;;;;;10.63;4.00;;;8.90;99.90;;;;;;5037180;28;20204;-83
2023/09/15 04:37:44;;;;;;;6.13;3.80;;;9.10;99.90;;;;;;5036848;28;20258;-82
2023/09/15 04:40:12;;;;;;;7.57;3.73;;;9.00;99.90;;;;;;5037223;28;20211;-83
2023/09/15 04:42:40;;;;;;;6.80;4.30;;;9.00;99.90;;;;;;5036822;28;20227;-82
2023/09/15 04:45:07;;;;;;;7.07;4.63;;;9.00;99.90;;;;;;5023287;28;20236;-82
2023/09/15 04:47:36;;;;;;;6.73;5.80;;;9.20;99.90;;;;;;5036765;28;20207;-81
2023/09/15 04:50:03;;;;;;;6.87;5.10;;;9.10;99.90;;;;;;5036746;28;20208;-81
2023/09/15 04:52:30;;;;;;;5.83;4.30;;;9.10;99.90;;;;;;5036260;28;20240;-81
2023/09/15 04:54:56;;;;;;;4.07;3.67;;;9.20;99.90;;;;;;5030027;28;20556;-82
2023/09/15 04:57:25;;;;;;;3.37;2.83;;;8.90;99.90;;;;;;5036232;28;20298;-81
2023/09/15 04:59:53;;;;;;;6.47;4.77;;;9.00;99.90;;;;;;5035374;28;20212;-80
2023/09/15 05:02:22;;;;;;;4.33;3.90;;;9.00;99.90;;;;;;5035353;28;20679;-84
2023/09/15 05:04:49;;;;;;;3.63;3.03;;;9.10;99.90;;;;;;5036940;28;20344;-81
2023/09/15 05:07:16;;;;;;;3.87;2.20;;;9.10;99.90;;;;;;5036319;28;20204;-82
2023/09/15 05:09:43;;;;;;;5.63;2.30;;;8.80;99.90;;;;;;5036318;28;20717;-81
2023/09/15 05:12:10;;;;;;;3.63;2.70;;;8.80;99.90;;;;;;5035049;28;20668;-81
2023/09/15 05:14:38;;;;;;;2.50;2.13;;;8.90;99.90;;;;;;5034769;28;20219;-81
2023/09/15 05:17:05;;;;;;;3.27;2.53;;;9.10;99.90;;;;;;5036189;28;20231;-81
2023/09/15 05:19:31;;;;;;;3.97;3.10;;;8.80;99.90;;;;;;5036543;28;20211;-80
2023/09/15 05:21:58;;;;;;;2.63;2.30;;;8.80;99.90;;;;;;5036333;28;20642;-82
2023/09/15 05:24:25;;;;;;;2.60;2.23;;;8.90;99.90;;;;;;5035211;28;20592;-80
2023/09/15 05:26:52;;;;;;;3.40;3.10;;;8.80;99.90;;;;;;5022981;28;20203;-82
2023/09/15 05:29:19;;;;;;;5.00;4.10;;;8.90;99.90;;;;;;5034903;28;20196;-81
2023/09/15 05:31:47;;;;;;;5.53;4.40;;;9.00;99.90;;;;;;5031564;28;20200;-80
2023/09/15 05:34:14;;;;;;;9.17;4.90;;;9.10;99.90;;;;;;5033771;28;20219;-81
2023/09/15 05:36:41;;;;;;;5.17;4.60;;;9.20;99.90;;;;;;5034906;28;20204;-81
2023/09/15 05:39:08;;;;;;;6.63;4.33;;;9.30;99.90;;;;;;5034817;28;20202;-81
2023/09/15 05:41:35;;;;;;;6.20;3.97;;;9.40;99.90;;;;;;5034807;28;20195;-81
2023/09/15 05:44:02;;;;;;;5.57;3.83;;;9.50;99.90;;;;;;5034938;28;20230;-79
2023/09/15 05:46:29;;;;;;;5.77;3.70;;;9.40;99.90;;;;;;5035028;28;20223;-81
2023/09/15 05:48:57;;;;;;;4.00;3.60;;;9.50;99.90;;;;;;5035486;28;20204;-80
2023/09/15 05:51:24;;;;;;;4.80;4.27;;;9.60;99.90;;;;;;5034550;28;20207;-81
2023/09/15 05:53:51;;;;;;;5.77;4.73;;;9.80;99.90;;;;;;5035126;28;20219;-81
2023/09/15 05:56:18;;;;;;;6.10;4.50;;;9.90;99.90;;;;;;5034488;28;20199;-81
2023/09/15 05:58:45;;;;;;;7.53;4.50;;;9.90;99.90;;;;;;5035126;28;20207;-81
2023/09/15 06:01:12;;;;;;;6.30;4.47;;;10.10;99.90;;;;;;5035425;28;20571;-80
2023/09/15 06:03:39;;;;;;;6.77;4.93;;;10.70;99.90;;;;;;5034506;28;20230;-81
2023/09/15 06:06:07;;;;;;;5.57;3.90;;;10.70;99.90;;;;;;5034719;28;20231;-81
2023/09/15 06:08:34;;;;;;;7.20;3.87;;;10.90;99.90;;;;;;5035122;28;20287;-81
2023/09/15 06:11:03;;;;;;;5.07;4.13;;;11.00;99.90;;;;;;5034193;28;20231;-82
2023/09/15 06:13:30;;;;;;;7.97;4.77;;;10.80;99.90;;;;;;5034554;28;20216;-80
2023/09/15 06:15:57;;;;;;;7.07;4.30;;;10.60;99.90;;;;;;5034376;28;20666;-81
2023/09/15 06:18:23;;;;;;;5.63;4.23;;;10.60;99.90;;;;;;5034042;28;20582;-81
2023/09/15 06:20:55;;;;;;;7.23;4.20;;;10.60;99.90;;;;;;5030664;28;20227;-83
2023/09/15 06:23:24;;;;;;;10.90;4.00;;;10.60;99.90;;;;;;5038015;28;20247;-79
2023/09/15 06:25:51;;;;;;;7.80;4.07;;;10.60;99.90;;;;;;5038082;28;20238;-82
2023/09/15 06:28:17;;;;;;;6.60;4.00;;;10.60;99.90;;;;;;5034084;28;20207;-82
2023/09/15 06:30:44;;;;;;;5.03;4.23;;;10.70;99.90;;;;;;5034298;28;20196;-82
2023/09/15 06:33:11;;;;;;;9.43;4.23;;;10.80;99.90;;;;;;5034542;28;20219;-82
2023/09/15 06:35:38;;;;;;;5.17;4.37;;;10.80;99.90;;;;;;5034419;28;20662;-80
2023/09/15 06:38:06;;;;;;;6.70;4.77;;;10.90;99.90;;;;;;5033981;28;20218;-80
2023/09/15 06:40:35;;;;;;;8.67;5.40;;;10.90;99.90;;;;;;5034638;28;20204;-83
2023/09/15 06:43:04;;;;;;;8.90;5.30;;;11.00;99.90;;;;;;5033932;28;20651;-81
2023/09/15 06:45:31;;;;;;;7.60;4.63;;;11.00;99.90;;;;;;5033571;28;20270;-80
2023/09/15 06:47:58;;;;;;;10.43;4.57;;;11.10;99.90;;;;;;5034208;28;20567;-82
2023/09/15 06:50:25;;;;;;;9.37;4.50;;;11.20;99.90;;;;;;5027176;28;20203;-82
2023/09/15 06:52:53;;;;;;;10.60;4.60;;;11.20;99.90;;;;;;5033576;28;20224;-82
2023/09/15 06:55:19;;;;;;;9.60;4.70;;;11.40;99.90;;;;;;5034329;28;20196;-81
2023/09/15 06:57:48;;;;;;;10.50;5.47;;;11.50;99.90;;;;;;5034130;28;20239;-82
2023/09/15 07:00:15;;;;;;;11.10;4.97;;;11.50;99.90;;;;;;5033626;28;20278;-83
2023/09/15 07:02:42;;;;;;;6.03;4.40;;;11.70;99.90;;;;;;5034184;28;20224;-83
2023/09/15 07:05:09;;;;;;;9.60;4.73;;;11.90;99.90;;;;;;5034227;28;20295;-82
2023/09/15 07:07:35;;;;;;;7.53;4.50;;;12.00;99.90;;;;;;5033648;28;20204;-82
2023/09/15 07:10:02;;;;;;;7.07;5.07;;;12.10;99.90;;;;;;5029384;28;20222;-81
2023/09/15 07:12:29;;;;;;;6.67;4.90;;;12.20;99.90;;;;;;5033030;28;20678;-80
2023/09/15 07:15:00;;;;;;;10.93;5.50;;;12.30;99.90;;;;;;5027685;28;20673;-82
2023/09/15 07:17:27;;;;;;;7.93;5.13;;;12.40;99.90;;;;;;5033786;28;20204;-81
2023/09/15 07:19:54;;;;;;;9.30;4.93;;;12.40;99.90;;;;;;5033582;28;20685;-80
2023/09/15 07:22:21;;;;;;;10.50;5.40;;;12.40;99.90;;;;;;5030416;28;20210;-79
2023/09/15 07:24:47;;;;;;;9.63;5.20;;;12.40;99.90;;;;;;5032935;28;20536;-81
2023/09/15 07:27:14;;;;;;;10.90;5.10;;;12.50;99.90;;;;;;5035655;28;20223;-82
2023/09/15 07:29:41;;;;;;;13.07;5.50;;;12.50;99.90;;;;;;5036982;28;20207;-80
2023/09/15 07:32:09;;;;;;;9.50;6.07;;;12.80;99.90;;;;;;5037627;28;20202;-82
2023/09/15 07:34:36;;;;;;;11.60;5.43;;;12.70;99.90;;;;;;5035178;28;20594;-80
2023/09/15 07:37:05;;;;;;;9.13;5.27;;;12.80;99.90;;;;;;5035056;28;20203;-79
2023/09/15 07:39:32;;;;;;;6.53;4.77;;;12.80;99.90;;;;;;5034228;28;20272;-81
2023/09/15 07:41:59;;;;;;;7.03;5.17;;;12.90;99.90;;;;;;5034281;28;20223;-81
2023/09/15 07:44:26;;;;;;;8.43;5.37;;;13.00;99.90;;;;;;5038685;28;20219;-82
2023/09/15 07:46:52;;;;;;;8.37;4.87;;;13.10;99.90;;;;;;5035008;28;20228;-82
2023/09/15 07:49:21;;;;;;;9.03;5.07;;;13.20;99.90;;;;;;5036550;28;20207;-81
2023/09/15 07:51:50;;;;;;;9.63;5.10;;;13.20;99.90;;;;;;5036223;28;20589;-82
2023/09/15 07:54:17;;;;;;;9.77;5.13;;;13.30;99.90;;;;;;5036090;28;20323;-82
2023/09/15 07:56:44;;;;;;;10.10;4.70;;;13.50;99.90;;;;;;5036454;28;20663;-82
2023/09/15 07:59:10;;;;;;;11.67;6.03;;;13.60;99.90;;;;;;5030031;28;20571;-81
2023/09/15 08:01:37;;;;;;;12.47;5.77;;;13.50;99.90;;;;;;5034934;28;20678;-81
2023/09/15 08:04:05;;;;;;;9.83;5.20;;;13.70;99.90;;;;;;5034095;28;20673;-81
2023/09/15 08:06:43;;;;;;;9.53;5.37;;;13.80;99.90;;;;;;5026956;28;20661;-82
2023/09/15 08:09:10;;;;;;;9.03;5.27;;;14.40;99.90;;;;;;5035485;28;20312;-80
2023/09/15 08:11:38;;;;;;;7.80;4.67;;;14.50;99.90;;;;;;5034154;28;20635;-83
2023/09/15 08:14:05;;;;;;;8.77;5.47;;;14.20;99.90;;;;;;5035849;28;20311;-81
2023/09/15 08:16:32;;;;;;;8.55;5.25;;;14.10;99.90;;;;;;5036135;28;20290;-79
2023/09/15 08:18:59;;;;;;;10.37;5.30;;;14.20;99.90;;;;;;5035723;28;20199;-81
2023/09/15 08:21:26;;;;;;;8.27;4.68;;;14.20;99.90;;;;;;5035838;28;20643;-81
2023/09/15 08:23:55;;;;;;;11.02;5.25;;;14.30;99.90;;;;;;5035402;28;20279;-81
2023/09/15 08:26:21;;;;;;;7.20;4.47;;;14.40;99.90;;;;;;5030325;28;20234;-82
2023/09/15 08:28:48;;;;;;;9.15;5.03;;;14.50;99.90;;;;;;5034143;28;20207;-79
2023/09/15 08:31:15;;;;;;;7.93;4.57;;;14.60;99.90;;;;;;5035422;28;20208;-82
2023/09/15 08:33:42;;;;;;;10.45;4.97;;;14.60;99.90;;;;;;5034521;28;20238;-82
2023/09/15 08:36:09;;;;;;;7.28;4.47;;;14.80;99.90;;;;;;5035263;28;20254;-81
2023/09/15 08:38:36;;;;;;;6.55;4.72;;;14.80;99.90;;;;;;5035515;28;20196;-82
2023/09/15 08:41:08;;;;;;;9.15;4.57;;;14.90;99.90;;;;;;5023673;28;20204;-82
2023/09/15 08:43:35;;;;;;;7.55;4.55;;;14.90;99.90;;;;;;5034245;28;20231;-80
2023/09/15 08:46:05;;;;;;;5.72;4.35;;;15.00;99.90;;;;;;5034854;28;20683;-82
2023/09/15 08:48:38;;;;;;;7.85;4.30;;;15.00;99.90;;;;;;5031404;28;20200;-82
2023/09/15 08:51:06;;;;;;;7.60;4.22;;;15.20;99.90;;;;;;5032256;28;20202;-81
2023/09/15 08:53:33;;;;;;;9.60;4.70;;;15.30;99.90;;;;;;5029852;28;20238;-82
2023/09/15 08:56:04;;;;;;;6.40;4.18;;;15.40;99.90;;;;;;5034669;28;20200;-82
2023/09/15 08:58:31;;;;;;;8.82;5.03;;;15.50;99.90;;;;;;5034111;28;20587;-82
2023/09/15 09:00:59;;;;;;;9.82;4.65;;;15.50;99.90;;;;;;5034811;28;20204;-81
2023/09/15 09:03:26;;;;;;;10.88;4.75;;;15.80;99.90;;;;;;5035475;28;20306;-83
2023/09/15 09:05:55;;;;;;;6.80;4.00;;;16.00;99.90;;;;;;5034694;28;20226;-82
2023/09/15 09:08:23;;;;;;;6.50;4.13;;;16.20;99.90;;;;;;5035756;28;20949;-82
2023/09/15 09:10:50;;;;;;;7.53;4.00;;;16.50;99.90;;;;;;5035726;28;20212;-81
2023/09/15 09:13:21;;;;;;;6.50;4.00;;;16.60;99.90;;;;;;5035096;28;20216;-81
2023/09/15 09:15:48;;;;;;;7.93;4.30;;;16.90;99.90;;;;;;5033779;28;20681;-82
2023/09/15 09:18:16;;;;;;;7.20;4.00;;;17.40;99.90;;;;;;5035837;28;20204;-82
2023/09/15 09:20:43;;;;;;;6.97;3.92;;;17.40;99.90;;;;;;5034887;28;20207;-81
2023/09/15 09:23:10;;;;;;;6.40;3.60;;;17.70;99.90;;;;;;5034729;28;20574;-80
2023/09/15 09:25:39;;;;;;;6.25;3.78;;;18.30;99.90;;;;;;5034825;28;20715;-83
2023/09/15 09:28:06;;;;;;;5.20;3.63;;;18.60;99.90;;;;;;5035372;28;20210;-83
2023/09/15 09:30:35;;;;;;;7.95;4.03;;;18.60;99.90;;;;;;5035691;28;20290;-84
2023/09/15 09:33:02;;;;;;;8.45;3.75;;;18.70;99.90;;;;;;5034962;28;20220;-84
2023/09/15 09:35:28;;;;;;;7.80;3.80;;;18.80;99.90;;;;;;5034749;28;20208;-83
2023/09/15 09:37:56;;;;;;;5.13;3.70;;;19.10;99.90;;;;;;5035018;28;20546;-83
2023/09/15 09:40:23;;;;;;;6.03;4.05;;;19.00;99.90;;;;;;5034649;28;20667;-82
2023/09/15 09:42:51;;;;;;;7.15;3.47;;;19.00;99.90;;;;;;5035326;28;20249;-83
2023/09/15 09:45:18;;;;;;;6.10;3.40;;;19.10;99.90;;;;;;5027472;28;20330;-80
2023/09/15 09:47:46;;;;;;;5.72;3.13;;;19.30;99.90;;;;;;5017774;28;20223;-80
2023/09/15 09:50:13;;;;;;;4.45;3.08;;;19.50;99.90;;;;;;5014810;28;20291;-81
2023/09/15 09:52:41;;;;;;;3.60;2.50;;;19.40;99.90;;;;;;5022730;28;20220;-80
2023/09/15 09:55:09;;;;;;;5.10;3.28;;;19.90;99.90;;;;;;5030185;28;20203;-81
2023/09/15 09:57:37;;;;;;;4.28;2.83;;;19.70;99.90;;;;;;5034411;28;20286;-81
2023/09/15 10:00:05;;;;;;;4.10;3.10;;;20.00;99.90;;;;;;5031431;28;20204;-81
2023/09/15 10:02:32;;;;;;;7.63;3.35;;;20.00;99.90;;;;;;5034443;28;20235;-81
2023/09/15 10:05:00;;;;;;;5.60;3.20;;;20.00;99.90;;;;;;5034369;28;20211;-83
2023/09/15 10:07:28;;;;;;;4.38;2.92;;;20.20;99.90;;;;;;5034777;28;20226;-82
2023/09/15 10:09:55;;;;;;;4.65;2.83;;;20.20;99.90;;;;;;5036677;28;20665;-80
2023/09/15 10:12:23;;;;;;;4.43;3.03;;;20.10;99.90;;;;;;5036358;28;20203;-80
2023/09/15 10:14:51;;;;;;;5.70;3.53;;;20.30;99.90;;;;;;5035895;28;20729;-81
2023/09/15 10:17:19;;;;;;;4.28;2.90;;;20.40;99.90;;;;;;5038421;28;20196;-81
2023/09/15 10:19:47;;;;;;;3.80;3.00;;;20.30;99.90;;;;;;5038482;28;20207;-81
2023/09/15 10:22:17;;;;;;;5.70;3.15;;;20.70;99.90;;;;;;5037357;28;20258;-81
2023/09/15 10:24:44;;;;;;;3.88;3.03;;;20.50;99.90;;;;;;5037642;28;20290;-80
2023/09/15 10:27:12;;;;;;;4.80;3.10;;;21.30;99.90;;;;;;5034088;28;20695;-79
2023/09/15 10:29:40;;;;;;;5.05;3.10;;;21.50;99.90;;;;;;5036972;28;20204;-81
2023/09/15 10:32:07;;;;;;;6.97;3.38;;;21.20;99.90;;;;;;5038289;28;20569;-81
2023/09/15 10:34:34;;;;;;;5.55;3.05;;;20.90;99.90;;;;;;5037967;28;20564;-79
2023/09/15 10:37:02;;;;;;;8.50;3.40;;;20.90;99.90;;;;;;5038474;28;20652;-80
2023/09/15 10:39:38;;;;;;;6.70;3.75;;;20.90;99.90;;;;;;5037951;28;20206;-79
2023/09/15 10:42:09;;;;;;;4.72;3.00;;;21.40;99.90;;;;;;5037608;28;20859;-81
2023/09/15 10:44:36;;;;;;;7.28;3.67;;;21.60;99.90;;;;;;5038307;28;20219;-80
2023/09/15 10:47:14;;;;;;;4.65;2.72;;;21.50;99.90;;;;;;5037559;28;20317;-81
2023/09/15 10:49:49;;;;;;;5.57;3.17;;;21.40;99.90;;;;;;5031292;28;20218;-81
2023/09/15 10:52:15;;;;;;;4.75;3.30;;;20.90;99.90;;;;;;5030583;28;20225;-80
2023/09/15 10:54:44;;;;;;;6.90;3.25;;;21.10;99.90;;;;;;5037453;28;20208;-80
2023/09/15 10:57:11;;;;;;;4.93;3.30;;;21.20;99.90;;;;;;5037933;28;20223;-80
2023/09/15 10:59:38;;;;;;;7.38;3.38;;;21.30;99.90;;;;;;5043084;28;20210;-79
2023/09/15 11:02:06;;;;;;;6.32;3.47;;;21.80;99.90;;;;;;5042519;28;20214;-80
2023/09/15 11:04:33;;;;;;;7.55;3.40;;;21.40;99.90;;;;;;5041586;28;20290;-79
2023/09/15 11:07:02;;;;;;;5.20;3.33;;;21.60;99.90;;;;;;5041874;28;20575;-81
2023/09/15 11:09:29;;;;;;;4.20;3.10;;;21.50;99.90;;;;;;5041133;28;20204;-80
2023/09/15 11:11:58;;;;;;;4.50;2.78;;;21.30;99.90;;;;;;5040468;28;20200;-80
2023/09/15 11:14:25;;;;;;;3.83;3.00;;;21.50;99.90;;;;;;5040762;28;20283;-81
2023/09/15 11:16:56;;;;;;;4.78;2.97;;;22.00;99.90;;;;;;5040704;28;20204;-82
2023/09/15 11:19:25;;;;;;;6.25;3.25;;;21.80;99.90;;;;;;5040668;28;20563;-81
2023/09/15 11:21:52;;;;;;;6.05;3.67;;;22.00;99.90;;;;;;5040780;28;20208;-81
2023/09/15 11:24:19;;;;;;;4.10;2.88;;;21.80;99.90;;;;;;5039877;28;20609;-80
2023/09/15 11:26:47;;;;;;;7.22;3.45;;;22.40;99.90;;;;;;5033665;28;20224;-80
2023/09/15 11:29:16;;;;;;;4.40;2.95;;;22.20;99.90;;;;;;5037686;28;20204;-80
2023/09/15 11:31:43;;;;;;;5.45;3.75;;;22.30;99.90;;;;;;5040384;28;20200;-80
2023/09/15 11:34:10;;;;;;;4.63;3.25;;;21.80;99.90;;;;;;5039427;28;20220;-80
2023/09/15 11:36:38;;;;;;;4.38;3.08;;;21.50;99.90;;;;;;5039659;28;20200;-81
2023/09/15 11:39:10;;;;;;;8.38;3.17;;;21.50;99.90;;;;;;5039123;28;20208;-81
2023/09/15 11:41:38;;;;;;;5.72;3.38;;;21.90;99.90;;;;;;5040307;28;20728;-80
2023/09/15 11:44:08;;;;;;;4.80;3.15;;;21.90;99.90;;;;;;5039838;28;20224;-81
2023/09/15 11:46:38;;;;;;;6.20;3.17;;;21.80;99.90;;;;;;5039098;28;20295;-80
2023/09/15 11:49:05;;;;;;;4.28;2.90;;;21.90;99.90;;;;;;5034373;28;20207;-81
2023/09/15 11:51:33;;;;;;;4.97;3.20;;;21.80;99.90;;;;;;5038388;28;20200;-80
2023/09/15 11:54:00;;;;;;;4.65;3.10;;;22.10;99.90;;;;;;5039300;28;20231;-80
2023/09/15 11:56:27;;;;;;;4.32;2.80;;;21.90;99.90;;;;;;5039695;28;20199;-80
2023/09/15 11:58:54;;;;;;;4.07;3.10;;;22.20;99.90;;;;;;5041281;28;20580;-79
2023/09/15 12:01:23;;;;;;;4.68;3.03;;;22.30;99.90;;;;;;5041562;28;20225;-80
2023/09/15 12:03:53;;;;;;;6.55;3.25;;;22.40;99.90;;;;;;5029151;28;20246;-80
2023/09/15 12:06:21;;;;;;;4.35;2.88;;;22.40;99.90;;;;;;5034310;28;20209;-81
2023/09/15 12:08:49;;;;;;;4.80;3.30;;;22.40;99.90;;;;;;5038562;28;20590;-80
2023/09/15 12:11:17;;;;;;;5.43;3.20;;;22.20;99.90;;;;;;5038672;28;20242;-81
2023/09/15 12:13:48;;;;;;;5.28;2.97;;;22.20;99.90;;;;;;5040262;28;20230;-81
2023/09/15 12:16:19;;;;;;;4.22;2.90;;;22.30;99.90;;;;;;5036033;28;20202;-81
2023/09/15 12:18:47;;;;;;;4.15;2.97;;;22.50;99.90;;;;;;5034184;28;20202;-80
2023/09/15 12:21:16;;;;;;;6.53;3.08;;;22.70;99.90;;;;;;5040350;28;20219;-81
2023/09/15 12:23:43;;;;;;;3.97;2.70;;;22.30;99.90;;;;;;5039549;28;20231;-82
2023/09/15 12:26:11;;;;;;;3.97;3.15;;;22.30;99.90;;;;;;5040611;28;20295;-82
2023/09/15 12:28:38;;;;;;;4.63;3.28;;;22.30;99.90;;;;;;5040640;28;20250;-81
2023/09/15 12:31:05;;;;;;;5.35;2.90;;;22.40;99.90;;;;;;5041017;28;20250;-79
2023/09/15 12:33:32;;;;;;;4.10;3.30;;;22.40;99.90;;;;;;5040407;28;20234;-80
2023/09/15 12:36:05;;;;;;;3.60;3.30;;;22.30;99.90;;;;;;5040122;28;20200;-81
2023/09/15 12:38:33;;;;;;;5.60;2.95;;;22.40;99.90;;;;;;5039550;28;20180;-80
2023/09/15 12:41:00;;;;;;;4.07;3.10;;;22.70;99.90;;;;;;5038931;28;20206;-79
2023/09/15 12:43:27;;;;;;;7.18;3.28;;;22.30;99.90;;;;;;5039193;28;20254;-80
2023/09/15 12:45:54;;;;;;;3.13;2.67;;;22.40;99.90;;;;;;5030036;28;20260;-79
2023/09/15 12:48:21;;;;;;;3.00;2.60;;;22.20;99.90;;;;;;5034012;28;20574;-79
2023/09/15 12:50:49;;;;;;;5.88;3.08;;;22.30;99.90;;;;;;5034142;28;20211;-79